Time;durP1;ratioP1;P1;durP2;ratioP2;P2;SDS_P1;SDS_P2;PMS_P1;PMS_P2;Temp;Humidity;BMP_temperature;BMP_pressure;BME280_temperature;BME280_humidity;BME280_pressure;Samples;Min_cycle;Max_cycle;Signal;HPM_P1;HPM_P2
2024/04/10 00:01:11;;;;;;;17.90;11.90;;;;;;;14.28;74.30;100868.14;108310;1260;60038;-67
2024/04/10 00:03:53;;;;;;;13.90;11.80;;;;;;;14.24;74.28;100865.45;108155;1263;139200;-67
2024/04/10 00:06:19;;;;;;;14.30;9.70;;;;;;;14.19;74.09;100876.35;108510;1261;76726;-68
2024/04/10 00:08:46;;;;;;;11.90;9.20;;;;;;;14.16;74.05;100883.55;108814;1262;65771;-67
2024/04/10 00:11:12;;;;;;;13.10;9.00;;;;;;;14.13;74.05;100893.02;108662;1261;139316;-67
2024/04/10 00:13:39;;;;;;;11.80;8.50;;;;;;;14.10;73.86;100893.86;108125;1260;61108;-66
2024/04/10 00:16:06;;;;;;;13.70;8.70;;;;;;;14.07;73.87;100906.19;107890;1260;140108;-67
2024/04/10 00:18:34;;;;;;;9.50;7.00;;;;;;;14.06;73.80;100908.44;108206;1260;76515;-66
2024/04/10 00:21:01;;;;;;;7.50;6.40;;;;;;;14.03;73.77;100914.94;108221;1260;64226;-65
2024/04/10 00:23:28;;;;;;;10.70;6.40;;;;;;;14.01;73.63;100923.04;108398;1265;139238;-68
2024/04/10 00:25:58;;;;;;;8.50;5.90;;;;;;;13.99;73.62;100933.24;108654;1266;59942;-68
2024/04/10 00:28:29;;;;;;;7.70;5.40;;;;;;;13.97;73.47;100941.33;108240;1262;139249;-66
2024/04/10 00:30:56;;;;;;;7.00;4.70;;;;;;;13.95;73.40;100949.06;108266;1260;73718;-66
2024/04/10 00:33:23;;;;;;;7.70;4.30;;;;;;;13.93;73.30;100949.39;108322;1260;139737;-66
2024/04/10 00:36:02;;;;;;;6.80;4.20;;;;;;;13.91;73.04;100956.77;108210;1262;73829;-67
2024/04/10 00:38:30;;;;;;;7.30;3.80;;;;;;;13.87;72.96;100954.77;108718;1265;60826;-67
2024/04/10 00:40:58;;;;;;;4.50;3.10;;;;;;;13.84;72.74;100956.67;108672;1262;139359;-67
2024/04/10 00:43:24;;;;;;;6.00;2.80;;;;;;;13.80;72.51;100958.55;108328;1260;75470;-67
2024/04/10 00:46:02;;;;;;;4.20;2.70;;;;;;;13.78;72.41;100958.70;108233;1260;139045;-66
2024/04/10 00:48:28;;;;;;;4.10;2.50;;;;;;;13.75;72.24;100967.83;108290;1261;72872;-66
2024/04/10 00:50:55;;;;;;;4.50;2.70;;;;;;;13.73;72.17;100963.04;108297;1260;59878;-66
2024/04/10 00:53:22;;;;;;;3.30;2.30;;;;;;;13.72;72.06;100972.17;108557;1261;139184;-66
2024/04/10 00:55:48;;;;;;;8.90;2.50;;;;;;;13.69;71.84;100972.84;108741;1263;74348;-64
2024/04/10 00:58:15;;;;;;;4.30;2.10;;;;;;;13.66;71.66;100982.67;108062;1260;139622;-65
2024/04/10 01:00:42;;;;;;;3.20;2.00;;;;;;;13.61;71.58;100990.89;107813;1261;71407;-64
2024/04/10 01:03:09;;;;;;;5.50;1.80;;;;;;;13.57;71.48;100993.63;108023;1260;61984;-67
2024/04/10 01:05:36;;;;;;;5.40;2.00;;;;;;;13.53;71.34;100999.04;107991;1260;139468;-67
2024/04/10 01:08:05;;;;;;;3.60;2.00;;;;;;;13.50;71.22;101007.09;108763;1264;73578;-67
2024/04/10 01:10:32;;;;;;;3.80;1.30;;;;;;;13.47;71.06;101015.33;108601;1260;139003;-68
2024/04/10 01:12:58;;;;;;;1.80;1.40;;;;;;;13.44;71.00;101021.98;108308;1260;72559;-67
2024/04/10 01:15:25;;;;;;;1.90;1.20;;;;;;;13.43;70.82;101028.65;108105;1260;139065;-67
2024/04/10 01:17:52;;;;;;;3.70;1.40;;;;;;;13.41;70.78;101037.60;108351;1262;60838;-66
2024/04/10 01:20:18;;;;;;;4.80;1.40;;;;;;;13.39;70.64;101041.98;108090;1261;75230;-66
2024/04/10 01:22:45;;;;;;;2.20;1.10;;;;;;;13.35;70.56;101051.27;108619;1261;138142;-66
2024/04/10 01:25:11;;;;;;;1.60;1.00;;;;;;;13.31;70.40;101050.12;108601;1261;72855;-66
2024/04/10 01:27:38;;;;;;;1.20;0.70;;;;;;;13.28;70.30;101050.92;108142;1259;139375;-65
2024/04/10 01:30:05;;;;;;;2.80;1.20;;;;;;;13.24;70.20;101052.95;108334;1260;59925;-66
2024/04/10 01:32:32;;;;;;;3.00;1.20;;;;;;;13.19;70.08;101050.73;108297;1260;76778;-67
2024/04/10 01:34:58;;;;;;;2.40;1.20;;;;;;;13.15;70.09;101055.60;108393;1263;138696;-65
2024/04/10 01:37:25;;;;;;;3.30;1.30;;;;;;;13.12;69.97;101063.64;108727;1264;60272;-67
2024/04/10 01:39:51;;;;;;;2.10;1.10;;;;;;;13.11;70.02;101067.50;108660;1261;138119;-67
2024/04/10 01:42:18;;;;;;;2.10;0.90;;;;;;;13.09;69.87;101072.23;108364;1260;61568;-66
2024/04/10 01:44:45;;;;;;;1.70;1.10;;;;;;;13.08;69.60;101076.77;108257;1260;75554;-65
2024/04/10 01:47:11;;;;;;;2.90;1.00;;;;;;;13.07;69.50;101088.22;108246;1260;138565;-66
2024/04/10 01:49:40;;;;;;;4.30;1.10;;;;;;;13.05;69.34;101091.70;108288;1260;72502;-65
2024/04/10 01:52:06;;;;;;;2.30;1.00;;;;;;;13.02;69.22;101096.21;108555;1260;138418;-65
2024/04/10 01:54:33;;;;;;;2.00;0.90;;;;;;;12.99;69.03;101107.61;108754;1260;61839;-66
2024/04/10 01:56:59;;;;;;;2.80;1.00;;;;;;;12.97;68.92;101114.61;108486;1260;74969;-66
2024/04/10 01:59:26;;;;;;;1.60;0.80;;;;;;;12.96;68.59;101120.92;108194;1260;139366;-65
2024/04/10 02:01:53;;;;;;;1.30;1.00;;;;;;;12.95;68.47;101131.30;108344;1260;71979;-64
2024/04/10 02:04:19;;;;;;;3.80;1.00;;;;;;;12.96;68.37;101138.90;108105;1263;138101;-65
2024/04/10 02:06:46;;;;;;;3.40;0.90;;;;;;;12.97;68.24;101145.26;108444;1260;59846;-66
2024/04/10 02:09:13;;;;;;;1.70;0.90;;;;;;;12.97;68.12;101148.42;108839;1260;75056;-66
2024/04/10 02:11:40;;;;;;;3.90;1.00;;;;;;;12.97;67.94;101153.89;108302;1260;137982;-67
2024/04/10 02:14:06;;;;;;;2.60;1.00;;;;;;;12.95;67.71;101166.88;108311;1261;71609;-67
2024/04/10 02:16:33;;;;;;;3.50;1.00;;;;;;;12.93;67.75;101170.91;108011;1260;138502;-67
2024/04/10 02:19:00;;;;;;;2.40;1.00;;;;;;;12.95;67.79;101179.77;107885;1264;60041;-67
2024/04/10 02:21:26;;;;;;;2.20;1.40;;;;;;;12.99;67.45;101185.29;108418;1260;138024;-65
2024/04/10 02:23:54;;;;;;;3.50;0.90;;;;;;;12.98;67.37;101188.98;108723;1260;66373;-66
2024/04/10 02:26:21;;;;;;;2.70;1.10;;;;;;;12.99;67.31;101191.11;108716;1260;72914;-68
2024/04/10 02:28:48;;;;;;;2.80;1.10;;;;;;;13.01;67.16;101196.63;108201;1260;138096;-67
2024/04/10 02:31:15;;;;;;;4.60;1.20;;;;;;;13.01;67.07;101200.85;107977;1261;234200;-67
2024/04/10 02:33:41;;;;;;;1.80;1.30;;;;;;;13.01;66.86;101210.18;108036;1260;139092;-67
2024/04/10 02:36:08;;;;;;;3.40;1.40;;;;;;;12.97;66.78;101212.20;108454;1260;67481;-69
2024/04/10 02:38:35;;;;;;;3.90;1.90;;;;;;;12.96;66.83;101210.27;108720;1260;71710;-68
2024/04/10 02:41:02;;;;;;;4.20;2.00;;;;;;;12.95;66.82;101209.70;108531;1264;138955;-67
2024/04/10 02:43:29;;;;;;;5.50;2.20;;;;;;;12.92;66.83;101209.81;108109;1260;60841;-67
2024/04/10 02:46:03;;;;;;;8.70;2.30;;;;;;;12.90;66.99;101213.29;108087;1260;139101;-67
2024/04/10 02:48:29;;;;;;;5.80;3.10;;;;;;;12.90;67.07;101219.63;108324;1260;68424;-67
2024/04/10 02:50:56;;;;;;;9.60;2.90;;;;;;;12.90;67.12;101222.79;108431;1260;71583;-66
2024/04/10 02:53:23;;;;;;;9.00;3.80;;;;;;;12.90;67.15;101222.45;108602;1260;138297;-68
2024/04/10 02:55:50;;;;;;;6.80;3.20;;;;;;;12.89;67.18;101226.30;108546;1260;61893;-67
2024/04/10 02:58:17;;;;;;;5.70;3.70;;;;;;;12.88;67.30;101234.73;108204;1261;138270;-67
2024/04/10 03:00:44;;;;;;;6.80;3.50;;;;;;;12.88;67.39;101239.11;108332;1261;65654;-66
2024/04/10 03:03:12;;;;;;;12.40;4.50;;;;;;;12.88;67.34;101241.41;107869;1260;71551;-65
2024/04/10 03:05:39;;;;;;;7.40;4.30;;;;;;;12.87;67.42;101247.02;107984;1260;139298;-65
2024/04/10 03:08:06;;;;;;;10.20;3.90;;;;;;;12.86;67.41;101255.11;108703;1260;59841;-65
2024/04/10 03:10:33;;;;;;;5.00;3.60;;;;;;;12.84;67.39;101260.16;108271;1260;138677;-65
2024/04/10 03:12:59;;;;;;;8.10;4.30;;;;;;;12.82;67.37;101265.23;108300;1260;67358;-65
2024/04/10 03:15:26;;;;;;;10.40;4.20;;;;;;;12.82;67.51;101269.98;108230;1259;138615;-64
2024/04/10 03:17:53;;;;;;;6.00;4.00;;;;;;;12.80;67.47;101281.04;107759;1260;61339;-64
2024/04/10 03:20:20;;;;;;;13.20;5.60;;;;;;;12.74;67.44;101279.84;108421;1261;61507;-66
2024/04/10 03:22:47;;;;;;;7.10;4.00;;;;;;;12.69;67.53;101284.98;108624;1259;139187;-66
2024/04/10 03:25:14;;;;;;;8.10;4.70;;;;;;;12.65;67.61;101282.07;108801;1260;65945;-69
2024/04/10 03:27:41;;;;;;;14.20;5.20;;;;;;;12.62;67.68;101288.33;108104;1260;138440;-68
2024/04/10 03:30:08;;;;;;;14.80;5.70;;;;;;;12.58;67.74;101286.84;107839;1260;60111;-66
2024/04/10 03:32:35;;;;;;;9.40;4.80;;;;;;;12.56;67.83;101284.48;108299;1260;62000;-66
2024/04/10 03:35:03;;;;;;;12.60;5.80;;;;;;;12.55;67.93;101281.81;108051;1260;138940;-66
2024/04/10 03:37:31;;;;;;;9.40;4.80;;;;;;;12.56;68.06;101284.66;108655;1260;66397;-66
2024/04/10 03:39:58;;;;;;;8.50;4.70;;;;;;;12.57;67.95;101290.50;108473;1260;139064;-66
2024/04/10 03:42:24;;;;;;;7.20;5.00;;;;;;;12.57;68.02;101292.44;108436;1260;59940;-66
2024/04/10 03:44:51;;;;;;;8.90;4.50;;;;;;;12.55;67.97;101290.80;108246;1259;61604;-67
2024/04/10 03:47:17;;;;;;;7.20;4.10;;;;;;;12.53;67.93;101288.82;108198;1260;138060;-66
2024/04/10 03:49:44;;;;;;;8.00;4.50;;;;;;;12.52;67.91;101293.19;108248;1260;68288;-66
2024/04/10 03:52:10;;;;;;;6.80;4.10;;;;;;;12.51;67.86;101295.27;108477;1260;137972;-66
2024/04/10 03:54:37;;;;;;;7.50;4.00;;;;;;;12.52;67.79;101299.16;108805;1259;59829;-66
2024/04/10 03:57:04;;;;;;;10.10;3.90;;;;;;;12.54;67.76;101301.52;108627;1260;59866;-66
2024/04/10 03:59:31;;;;;;;9.70;3.30;;;;;;;12.54;67.37;101302.39;108164;1260;139130;-65
2024/04/10 04:01:57;;;;;;;9.00;4.20;;;;;;;12.51;67.27;101304.96;108270;1260;65051;-65
2024/04/10 04:04:24;;;;;;;8.50;3.10;;;;;;;12.51;67.19;101306.56;108171;1260;139380;-65
2024/04/10 04:06:51;;;;;;;6.90;2.70;;;;;;;12.54;67.17;101315.77;108169;1260;61064;-65
2024/04/10 04:09:20;;;;;;;8.40;3.20;;;;;;;12.57;67.12;101320.09;108284;1265;61343;-65
2024/04/10 04:11:47;;;;;;;4.70;2.70;;;;;;;12.62;66.92;101329.55;108119;1260;138347;-65
2024/04/10 04:14:14;;;;;;;7.30;2.50;;;;;;;12.63;66.71;101327.09;108510;1260;65715;-66
2024/04/10 04:16:40;;;;;;;7.00;2.90;;;;;;;12.64;66.58;101333.64;108555;1259;137957;-68
2024/04/10 04:19:07;;;;;;;6.70;2.70;;;;;;;12.67;66.50;101338.64;108728;1260;60160;-68
2024/04/10 04:21:34;;;;;;;6.90;2.50;;;;;;;12.71;66.44;101345.98;108717;1263;138170;-68
2024/04/10 04:24:01;;;;;;;4.30;2.30;;;;;;;12.75;66.36;101349.41;108769;1260;75767;-68
2024/04/10 04:26:27;;;;;;;8.00;2.80;;;;;;;12.75;66.02;101355.23;108709;1260;65933;-68
2024/04/10 04:28:54;;;;;;;5.40;2.70;;;;;;;12.74;66.00;101358.20;108640;1261;138258;-67
2024/04/10 04:31:20;;;;;;;7.00;2.50;;;;;;;12.78;66.16;101364.09;108730;1260;60051;-66
2024/04/10 04:33:48;;;;;;;5.80;2.80;;;;;;;12.84;66.13;101370.27;108505;1261;138018;-67
2024/04/10 04:36:15;;;;;;;10.50;2.60;;;;;;;12.90;66.02;101372.86;108787;1259;74024;-67
2024/04/10 04:38:41;;;;;;;7.40;2.40;;;;;;;12.95;65.98;101375.99;108782;1260;67613;-68
2024/04/10 04:41:08;;;;;;;10.20;3.10;;;;;;;12.97;65.74;101386.07;108618;1259;137887;-66
2024/04/10 04:43:34;;;;;;;6.50;2.50;;;;;;;13.00;65.68;101393.91;108544;1260;59847;-67
2024/04/10 04:46:02;;;;;;;8.10;2.60;;;;;;;13.03;65.59;101395.06;108494;1263;138093;-67
2024/04/10 04:48:29;;;;;;;5.60;2.50;;;;;;;13.01;65.38;101395.70;108859;1260;74410;-67
2024/04/10 04:50:56;;;;;;;7.20;2.70;;;;;;;13.01;65.41;101403.80;108724;1262;67198;-67
2024/04/10 04:53:23;;;;;;;10.60;2.70;;;;;;;13.06;65.41;101400.41;108527;1260;138007;-67
2024/04/10 04:55:49;;;;;;;5.90;2.40;;;;;;;13.11;65.31;101403.17;108755;1260;59779;-68
2024/04/10 04:58:16;;;;;;;6.20;2.10;;;;;;;13.17;65.41;101400.15;108654;1260;138585;-67
2024/04/10 05:00:43;;;;;;;5.30;2.50;;;;;;;13.22;65.24;101401.50;108816;1260;74059;-68
2024/04/10 05:04:53;;;;;;;8.40;2.60;;;;;;;13.20;64.97;101403.75;108819;1260;65173;-67
2024/04/10 05:05:56;;;;;;;7.80;2.50;;;;;;;13.25;64.93;101411.98;108753;1260;72968;-65
2024/04/10 05:08:23;;;;;;;9.20;2.70;;;;;;;13.27;64.52;101415.02;108674;1260;59901;-67
2024/04/10 05:10:49;;;;;;;7.10;2.30;;;;;;;13.28;64.45;101417.15;108620;1260;138097;-64
2024/04/10 05:13:16;;;;;;;9.00;2.10;;;;;;;13.34;64.42;101425.63;108766;1259;76554;-67
2024/04/10 05:15:42;;;;;;;5.80;2.20;;;;;;;13.45;64.46;101435.41;108503;1260;138648;-67
2024/04/10 05:18:09;;;;;;;5.80;2.30;;;;;;;13.53;64.20;101444.07;108493;1260;71357;-67
2024/04/10 05:20:36;;;;;;;5.90;2.40;;;;;;;13.58;64.07;101453.89;108055;1260;60072;-66
2024/04/10 05:23:03;;;;;;;5.10;1.80;;;;;;;13.69;64.01;101464.20;108327;1260;139088;-65
2024/04/10 05:25:30;;;;;;;6.60;1.90;;;;;;;13.82;63.81;101464.86;108758;1260;75058;-66
2024/04/10 05:27:57;;;;;;;5.40;2.10;;;;;;;13.91;63.52;101470.17;108294;1261;138341;-65
2024/04/10 05:30:23;;;;;;;8.20;2.20;;;;;;;14.02;63.43;101474.64;108411;1260;72805;-65
2024/04/10 05:32:50;;;;;;;8.10;2.10;;;;;;;14.12;63.14;101474.71;108428;1260;61439;-67
2024/04/10 05:35:17;;;;;;;6.10;2.10;;;;;;;14.22;62.90;101482.15;108417;1260;138146;-66
2024/04/10 05:37:44;;;;;;;10.10;2.60;;;;;;;14.34;62.79;101494.59;108644;1260;75420;-64
2024/04/10 05:40:14;;;;;;;5.00;2.20;;;;;;;14.47;62.67;101493.80;108550;1260;138590;-65
2024/04/10 05:42:41;;;;;;;5.90;2.30;;;;;;;14.58;62.51;101497.61;108543;1259;71348;-65
2024/04/10 05:45:08;;;;;;;12.20;2.10;;;;;;;14.68;62.22;101503.99;108419;1260;60943;-65
2024/04/10 05:47:36;;;;;;;4.90;1.90;;;;;;;14.78;62.14;101502.95;108502;1260;138203;-65
2024/04/10 05:50:02;;;;;;;4.90;1.90;;;;;;;14.88;61.79;101508.80;108441;1260;74660;-65
2024/04/10 05:52:30;;;;;;;4.50;1.90;;;;;;;14.89;61.46;101510.77;108151;1260;138692;-63
2024/04/10 05:54:56;;;;;;;5.80;2.10;;;;;;;14.91;61.35;101520.00;108276;1260;72872;-65
2024/04/10 05:57:26;;;;;;;5.90;1.70;;;;;;;14.86;61.00;101527.68;108220;1260;60066;-65
2024/04/10 05:59:56;;;;;;;6.60;2.40;;;;;;;14.80;60.90;101534.27;108201;1262;60483;-64
2024/04/10 06:02:22;;;;;;;5.80;2.50;;;;;;;14.75;60.87;101543.00;108449;1262;75210;-65
2024/04/10 06:04:55;;;;;;;7.60;2.50;;;;;;;14.72;60.60;101544.17;108620;1260;138454;-64
2024/04/10 06:07:22;;;;;;;8.50;2.90;;;;;;;14.63;60.55;101549.27;108776;1260;72826;-64
2024/04/10 06:09:52;;;;;;;8.10;2.40;;;;;;;14.58;60.62;101553.42;108519;1260;138758;-64
2024/04/10 06:12:19;;;;;;;9.00;3.60;;;;;;;14.61;60.74;101554.37;108729;1260;59973;-64
2024/04/10 06:14:46;;;;;;;7.50;2.80;;;;;;;14.65;60.63;101559.39;108765;1260;74828;-64
2024/04/10 06:17:12;;;;;;;3.40;2.10;;;;;;;14.67;60.58;101556.42;108517;1260;138341;-64
2024/04/10 06:19:40;;;;;;;7.80;2.80;;;;;;;14.63;60.30;101561.65;108759;1260;71994;-64
2024/04/10 06:22:06;;;;;;;8.60;2.60;;;;;;;14.62;60.33;101566.40;108545;1260;138198;-64
2024/04/10 06:24:34;;;;;;;5.00;2.20;;;;;;;14.58;60.06;101570.73;108367;1260;60065;-64
2024/04/10 06:27:02;;;;;;;7.30;2.30;;;;;;;14.53;60.05;101570.40;108626;1259;77540;-64
2024/04/10 06:29:29;;;;;;;4.20;2.20;;;;;;;14.51;60.04;101565.24;108628;1260;138345;-64
2024/04/10 06:31:55;;;;;;;5.30;2.20;;;;;;;14.48;59.92;101570.13;108767;1260;73958;-64
2024/04/10 06:34:22;;;;;;;8.30;2.20;;;;;;;14.45;59.98;101568.66;108657;1260;139023;-64
2024/04/10 06:36:49;;;;;;;4.10;1.90;;;;;;;14.45;59.84;101570.94;108720;1262;61075;-64
2024/04/10 06:39:15;;;;;;;7.10;2.50;;;;;;;14.46;59.93;101571.32;108622;1260;74252;-64
2024/04/10 06:41:42;;;;;;;5.10;2.20;;;;;;;14.49;59.88;101564.48;108072;1260;138150;-63
2024/04/10 06:44:09;;;;;;;8.80;2.30;;;;;;;14.55;59.97;101570.14;108259;1260;71949;-64
2024/04/10 06:46:35;;;;;;;7.80;2.80;;;;;;;14.68;59.81;101575.55;108247;1260;138605;-64
2024/04/10 06:49:02;;;;;;;10.40;3.20;;;;;;;14.78;59.75;101582.11;108414;1260;60079;-66
2024/04/10 06:51:30;;;;;;;9.70;2.50;;;;;;;14.84;59.58;101585.23;108312;1260;138610;-64
2024/04/10 06:53:57;;;;;;;6.40;2.60;;;;;;;14.88;59.31;101598.92;108245;1260;64432;-64
2024/04/10 06:56:23;;;;;;;3.90;2.00;;;;;;;14.94;59.26;101611.08;108260;1260;73199;-64
2024/04/10 06:58:50;;;;;;;6.20;2.10;;;;;;;15.00;59.16;101617.19;108308;1260;137780;-63
2024/04/10 07:01:17;;;;;;;4.30;1.70;;;;;;;15.05;59.08;101625.61;108402;1260;60134;-63
2024/04/10 07:03:43;;;;;;;7.10;2.70;;;;;;;15.07;58.85;101632.54;108342;1260;138138;-64
2024/04/10 07:06:11;;;;;;;5.70;2.60;;;;;;;15.05;58.72;101634.27;108163;1260;65819;-64
2024/04/10 07:08:42;;;;;;;3.70;1.90;;;;;;;15.03;58.65;101639.36;108004;1267;72964;-63
2024/04/10 07:11:14;;;;;;;4.70;2.10;;;;;;;15.01;58.57;101646.39;108213;1260;138144;-63
2024/04/10 07:13:44;;;;;;;4.90;1.70;;;;;;;14.94;58.43;101654.56;108688;1261;61053;-64
2024/04/10 07:16:11;;;;;;;3.30;1.40;;;;;;;14.90;58.48;101659.76;108163;1260;138385;-63
2024/04/10 07:18:37;;;;;;;6.60;2.60;;;;;;;14.86;58.58;101664.45;108433;1259;65682;-65
2024/04/10 07:21:07;;;;;;;6.10;2.10;;;;;;;14.82;58.61;101670.02;108380;1260;72876;-66
2024/04/10 07:23:39;;;;;;;8.00;3.70;;;;;;;14.82;59.04;101673.17;108209;1260;138168;-66
2024/04/10 07:26:22;;;;;;;6.50;2.70;;;;;;;14.84;59.17;101675.36;108407;1259;59846;-66
2024/04/10 07:28:53;;;;;;;5.70;3.30;;;;;;;14.91;59.26;101677.80;108285;1260;138153;-66
2024/04/10 07:31:21;;;;;;;7.20;2.60;;;;;;;15.02;59.48;101673.98;108396;1260;64947;-65
2024/04/10 07:33:48;;;;;;;5.70;2.10;;;;;;;15.16;59.46;101671.63;108325;1259;139494;-64
2024/04/10 07:36:18;;;;;;;5.10;1.70;;;;;;;15.36;59.48;101674.69;108353;1263;72267;-66
2024/04/10 07:38:45;;;;;;;4.40;1.90;;;;;;;15.60;59.37;101676.92;108451;1259;61024;-63
2024/04/10 07:41:13;;;;;;;4.30;1.70;;;;;;;15.77;58.90;101678.86;108200;1260;138120;-63
2024/04/10 07:43:39;;;;;;;8.70;2.10;;;;;;;15.91;58.79;101685.32;108255;1260;65572;-63
2024/04/10 07:46:09;;;;;;;3.20;1.80;;;;;;;16.03;58.56;101685.00;107936;1260;138139;-63
2024/04/10 07:48:37;;;;;;;2.40;1.50;;;;;;;16.11;58.13;101688.33;108243;1259;59729;-63
2024/04/10 07:51:08;;;;;;;3.30;1.60;;;;;;;16.14;57.63;101694.91;108325;1260;60432;-65
2024/04/10 07:53:35;;;;;;;4.30;1.60;;;;;;;16.13;57.32;101706.42;107973;1262;138594;-65
2024/04/10 07:56:02;;;;;;;4.70;1.80;;;;;;;16.14;57.32;101711.05;108210;1260;66866;-63
2024/04/10 07:58:30;;;;;;;4.00;2.00;;;;;;;16.15;57.21;101705.92;108275;1259;138044;-63
2024/04/10 08:00:58;;;;;;;7.20;2.40;;;;;;;16.09;57.03;101705.12;108135;1260;60002;-65
2024/04/10 08:03:26;;;;;;;4.10;2.00;;;;;;;16.00;56.90;101713.45;108488;1259;60528;-65
2024/04/10 08:05:52;;;;;;;6.50;1.90;;;;;;;15.91;56.98;101717.89;108487;1259;138552;-64
2024/04/10 08:08:19;;;;;;;6.70;1.90;;;;;;;15.82;57.01;101725.50;108635;1260;66482;-66
2024/04/10 08:10:46;;;;;;;4.50;1.70;;;;;;;15.74;57.10;101727.12;108461;1260;138946;-65
2024/04/10 08:13:14;;;;;;;3.70;1.70;;;;;;;15.65;56.85;101726.38;108684;1260;59700;-65
2024/04/10 08:15:44;;;;;;;4.70;1.70;;;;;;;15.51;56.58;101727.70;108572;1260;138745;-65
2024/04/10 08:18:10;;;;;;;2.50;1.40;;;;;;;15.35;56.25;101732.33;108581;1260;75513;-65
2024/04/10 08:20:37;;;;;;;4.00;1.70;;;;;;;15.23;56.42;101739.48;108316;1260;66910;-64
2024/04/10 08:23:03;;;;;;;4.20;1.70;;;;;;;15.10;56.33;101737.08;108299;1259;138519;-63
2024/04/10 08:25:30;;;;;;;5.20;2.50;;;;;;;15.00;56.39;101738.10;108363;1259;59754;-63
2024/04/10 08:27:57;;;;;;;3.90;2.20;;;;;;;14.90;56.39;101731.70;108247;1259;138417;-63
2024/04/10 08:30:24;;;;;;;5.10;1.60;;;;;;;14.84;56.59;101734.38;108302;1260;74347;-64
2024/04/10 08:32:50;;;;;;;6.20;1.80;;;;;;;14.86;56.78;101743.79;108402;1259;65032;-64
2024/04/10 08:35:17;;;;;;;5.20;2.10;;;;;;;14.90;56.97;101744.41;108283;1259;138313;-65
2024/04/10 08:37:43;;;;;;;5.70;2.10;;;;;;;14.95;57.19;101750.36;108353;1260;59813;-65
2024/04/10 08:40:10;;;;;;;7.40;2.70;;;;;;;15.05;57.14;101758.02;108316;1260;138340;-65
2024/04/10 08:42:37;;;;;;;5.00;2.00;;;;;;;15.16;57.24;101756.14;108253;1260;77095;-65
2024/04/10 08:45:04;;;;;;;7.30;1.90;;;;;;;15.31;57.06;101755.23;108328;1260;64773;-65
2024/04/10 08:47:30;;;;;;;4.20;1.90;;;;;;;15.50;56.95;101755.98;108137;1260;138151;-65
2024/04/10 08:49:57;;;;;;;3.20;1.60;;;;;;;15.66;56.75;101759.85;108185;1260;60013;-66
2024/04/10 08:52:25;;;;;;;8.90;1.90;;;;;;;15.86;56.78;101758.67;108114;1260;138751;-64
2024/04/10 08:54:51;;;;;;;6.10;2.10;;;;;;;16.06;56.56;101758.17;108074;1260;75607;-64
2024/04/10 08:57:17;;;;;;;4.00;1.80;;;;;;;16.21;56.31;101766.59;108384;1259;61767;-64
2024/04/10 08:59:44;;;;;;;5.70;2.00;;;;;;;16.36;56.27;101767.02;108253;1259;138225;-64
2024/04/10 09:02:11;;;;;;;3.80;2.30;;;;;;;16.46;55.85;101769.52;108336;1260;59826;-64
2024/04/10 09:04:45;;;;;;;6.10;3.10;;;;;;;16.56;55.67;101777.83;108304;1260;138004;-64
2024/04/10 09:07:17;;;;;;;3.30;1.90;;;;;;;16.77;55.63;101785.27;108382;1259;73813;-64
2024/04/10 09:09:43;;;;;;;4.10;2.00;;;;;;;16.98;55.35;101779.23;108262;1260;137975;-65
2024/04/10 09:12:10;;;;;;;5.40;2.10;;;;;;;17.20;55.33;101774.77;108275;1259;73204;-64
2024/04/10 09:14:37;;;;;;;6.00;2.00;;;;;;;17.40;55.05;101784.27;108446;1260;59822;-63
2024/04/10 09:17:04;;;;;;;6.20;2.00;;;;;;;17.57;54.82;101781.29;108276;1259;138372;-64
2024/04/10 09:19:30;;;;;;;3.50;1.70;;;;;;;17.75;54.67;101787.37;108240;1260;76437;-65
2024/04/10 09:21:58;;;;;;;4.00;2.00;;;;;;;17.85;54.34;101790.90;108282;1259;139716;-64
2024/04/10 09:24:29;;;;;;;4.40;2.30;;;;;;;17.84;54.15;101794.59;108283;1260;70752;-64
2024/04/10 09:26:56;;;;;;;4.50;2.10;;;;;;;17.83;53.91;101797.77;108287;1260;60086;-64
2024/04/10 09:29:28;;;;;;;4.30;2.40;;;;;;;17.78;53.51;101804.27;108086;1260;138058;-64
2024/04/10 09:32:04;;;;;;;8.10;5.20;;;;;;;17.77;53.08;101809.05;108320;1260;74343;-64
2024/04/10 09:34:30;;;;;;;8.30;5.40;;;;;;;17.76;52.98;101811.35;108156;1260;138706;-66
2024/04/10 09:36:57;;;;;;;4.30;2.10;;;;;;;17.85;53.07;101799.95;108273;1260;72027;-64
2024/04/10 09:39:23;;;;;;;5.60;3.50;;;;;;;18.01;52.99;101795.16;108388;1260;60098;-65
2024/04/10 09:42:01;;;;;;;4.30;2.50;;;;;;;18.14;52.47;101796.89;108137;1260;138540;-64
2024/04/10 09:44:31;;;;;;;5.10;2.40;;;;;;;18.36;52.31;101807.42;108271;1261;73960;-64
2024/04/10 09:46:59;;;;;;;4.80;2.10;;;;;;;18.52;51.92;101811.14;108247;1260;138384;-63
2024/04/10 09:49:41;;;;;;;4.60;2.20;;;;;;;18.67;51.95;101811.96;108340;1260;73431;-63
2024/04/10 09:52:09;;;;;;;8.30;2.20;;;;;;;18.89;51.64;101818.59;108139;1268;139095;-64
2024/04/10 09:54:35;;;;;;;5.20;3.20;;;;;;;19.05;51.39;101829.38;108334;1260;60267;-65
2024/04/10 09:57:02;;;;;;;4.80;1.90;;;;;;;19.23;51.11;101825.94;108230;1260;74636;-66
2024/04/10 09:59:28;;;;;;;4.30;1.60;;;;;;;19.46;51.09;101828.92;108167;1260;138019;-67
2024/04/10 10:02:08;;;;;;;2.40;1.70;;;;;;;19.73;50.94;101833.70;108117;1260;73513;-65
2024/04/10 10:04:38;;;;;;;4.70;1.70;;;;;;;20.02;50.59;101830.27;108000;1260;139228;-64
2024/04/10 10:07:05;;;;;;;5.90;4.80;;;;;;;20.22;50.15;101825.88;108625;1267;60634;-63
2024/04/10 10:09:31;;;;;;;4.80;2.10;;;;;;;20.28;49.34;101824.45;108665;1260;138178;-63
2024/04/10 10:11:58;;;;;;;3.30;1.70;;;;;;;20.25;49.17;101821.23;108717;1260;65515;-64
2024/04/10 10:14:25;;;;;;;4.30;1.90;;;;;;;20.29;49.24;101822.14;108716;1260;72862;-64
2024/04/10 10:16:52;;;;;;;3.30;2.00;;;;;;;20.34;48.98;101822.33;108591;1260;138486;-64
2024/04/10 10:19:19;;;;;;;5.20;2.10;;;;;;;20.39;48.78;101824.30;108763;1259;61587;-64
2024/04/10 10:21:47;;;;;;;4.40;3.00;;;;;;;20.45;48.45;101823.77;108629;1260;138093;-64
2024/04/10 10:24:14;;;;;;;6.40;2.70;;;;;;;20.34;47.96;101822.33;108566;1260;65187;-64
2024/04/10 10:26:41;;;;;;;8.80;2.10;;;;;;;20.23;47.96;101819.81;108756;1260;71683;-63
2024/04/10 10:29:08;;;;;;;40.10;4.90;;;;;;;20.19;48.24;101820.51;108641;1260;138042;-64
2024/04/10 10:31:35;;;;;;;30.00;3.80;;;;;;;20.21;48.19;101820.16;108684;1260;61004;-64
2024/04/10 10:34:03;;;;;;;49.40;5.90;;;;;;;20.27;48.25;101816.61;108644;1260;139032;-64
2024/04/10 10:36:33;;;;;;;26.30;3.50;;;;;;;20.34;48.01;101819.48;108732;1260;65048;-64
2024/04/10 10:39:13;;;;;;;8.60;2.00;;;;;;;20.33;47.75;101831.95;108816;1260;72182;-64
2024/04/10 10:41:40;;;;;;;65.60;7.80;;;;;;;20.21;47.42;101830.67;108497;1258;138215;-64
2024/04/10 10:44:07;;;;;;;23.70;3.60;;;;;;;20.10;47.53;101842.77;108632;1260;60312;-65
2024/04/10 10:46:34;;;;;;;5.70;1.80;;;;;;;19.98;47.41;101844.32;108609;1260;138726;-64
2024/04/10 10:49:03;;;;;;;2.30;1.20;;;;;;;19.86;47.39;101848.55;108517;1260;66499;-64
2024/04/10 10:51:31;;;;;;;4.10;1.60;;;;;;;19.69;47.10;101851.48;108348;1260;138119;-64
2024/04/10 10:53:57;;;;;;;5.30;1.60;;;;;;;19.52;47.16;101852.09;108587;1260;59816;-64
2024/04/10 10:56:27;;;;;;;3.30;2.10;;;;;;;19.38;47.22;101852.20;108536;1260;59892;-65
2024/04/10 10:58:54;;;;;;;3.30;1.60;;;;;;;19.27;47.15;101860.14;108530;1260;139123;-64
2024/04/10 11:01:21;;;;;;;4.90;2.50;;;;;;;19.09;46.76;101856.27;108805;1260;66458;-63
2024/04/10 11:03:48;;;;;;;4.70;2.00;;;;;;;18.79;46.67;101857.08;108612;1261;138219;-63
2024/04/10 11:06:16;;;;;;;2.50;1.30;;;;;;;18.61;46.68;101861.17;108737;1260;59839;-64
2024/04/10 11:08:42;;;;;;;2.60;1.30;;;;;;;18.50;46.79;101861.05;108691;1260;67518;-65
2024/04/10 11:11:15;;;;;;;8.10;1.60;;;;;;;18.43;46.71;101861.70;108575;1266;138490;-63
2024/04/10 11:13:51;;;;;;;4.40;1.30;;;;;;;18.42;46.76;101865.23;108795;1260;65412;-65